createdAt,value
2019-02-24T00:00:52.648Z,0.30
2019-02-24T00:03:21.468Z,0.20
2019-02-24T00:05:50.180Z,0.10
2019-02-24T00:08:18.939Z,0.10
2019-02-24T00:10:47.652Z,0.10
2019-02-24T00:13:16.446Z,0.10
2019-02-24T00:15:45.115Z,0.20
2019-02-24T00:20:42.457Z,0.20
2019-02-24T00:23:11.500Z,0.10
2019-02-24T00:25:40.189Z,0.00
2019-02-24T00:28:08.884Z,-0.10
2019-02-24T00:30:37.553Z,-0.10
2019-02-24T00:33:06.244Z,-0.20
2019-02-24T00:35:34.916Z,-0.20
2019-02-24T00:38:03.699Z,0.70
2019-02-24T00:43:00.872Z,-0.30
2019-02-24T00:45:29.571Z,-0.30
2019-02-24T00:47:58.268Z,-0.20
2019-02-24T00:50:26.924Z,-0.20
2019-02-24T00:52:55.907Z,-0.30
2019-02-24T00:55:24.833Z,-0.30
2019-02-24T00:57:53.683Z,-0.40
2019-02-24T01:00:22.916Z,-0.50
2019-02-24T01:05:20.309Z,-0.40
2019-02-24T01:07:49.346Z,-0.30
2019-02-24T01:10:18.781Z,-0.30
2019-02-24T01:12:47.853Z,-0.20
2019-02-24T01:15:16.552Z,-0.20
2019-02-24T01:17:45.261Z,-0.30
2019-02-24T01:20:13.942Z,-0.30
2019-02-24T01:25:11.006Z,-0.30
2019-02-24T01:27:39.681Z,-0.30
2019-02-24T01:30:09.582Z,-0.30
2019-02-24T01:32:38.275Z,-0.30
2019-02-24T01:35:07.232Z,-0.40
2019-02-24T01:37:36.150Z,-0.40
2019-02-24T01:40:05.022Z,-0.50
2019-02-24T01:42:33.663Z,-0.80
2019-02-24T01:47:30.981Z,-0.90
2019-02-24T01:49:59.709Z,-1.00
2019-02-24T01:52:28.442Z,-1.00
2019-02-24T01:54:57.186Z,-0.80
2019-02-24T01:57:25.857Z,-0.80
2019-02-24T01:59:54.568Z,-0.90
2019-02-24T02:02:23.224Z,-0.90
2019-02-24T02:04:52.185Z,-1.00
2019-02-24T02:09:49.295Z,-1.10
2019-02-24T02:12:17.991Z,-1.30
2019-02-24T02:14:46.765Z,-1.30
2019-02-24T02:17:15.420Z,-1.20
2019-02-24T02:19:44.095Z,-1.10
2019-02-24T02:22:13.082Z,-1.10
2019-02-24T02:24:41.837Z,-1.30
2019-02-24T02:27:10.572Z,-1.60
2019-02-24T02:32:07.576Z,-1.60
2019-02-24T02:34:36.273Z,-1.50
2019-02-24T02:37:04.941Z,-1.40
2019-02-24T02:39:33.637Z,-1.40
2019-02-24T02:42:02.315Z,-1.30
2019-02-24T02:44:30.995Z,-1.30
2019-02-24T02:46:59.954Z,-1.50
2019-02-24T02:51:57.559Z,-1.60
2019-02-24T02:54:26.542Z,-1.50
2019-02-24T02:56:55.188Z,-1.60
2019-02-24T02:59:23.965Z,-1.50
2019-02-24T03:01:52.722Z,-1.60
2019-02-24T03:04:21.383Z,-1.60
2019-02-24T03:07:09.202Z,-1.50
2019-02-24T03:09:37.917Z,-0.90
2019-02-24T03:14:35.329Z,-1.60
2019-02-24T03:17:04.176Z,-1.50
2019-02-24T03:19:32.863Z,-1.50
2019-02-24T03:22:01.663Z,-1.40
2019-02-24T03:24:30.601Z,-1.40
2019-02-24T03:26:59.329Z,-1.40
2019-02-24T03:29:28.018Z,-1.40
2019-02-24T03:36:53.679Z,-1.60
2019-02-24T03:39:22.349Z,-1.70
2019-02-24T03:41:51.307Z,-1.80
2019-02-24T03:44:19.951Z,-1.70
2019-02-24T03:46:48.595Z,-1.80
2019-02-24T03:49:17.299Z,-1.90
2019-02-24T03:51:45.961Z,-1.90
2019-02-24T03:56:42.896Z,-1.80
2019-02-24T03:59:15.026Z,-1.80
2019-02-24T04:01:41.939Z,-1.90
2019-02-24T04:04:10.605Z,-2.10
2019-02-24T04:06:40.750Z,-2.10
2019-02-24T04:09:09.709Z,-2.20
2019-02-24T04:11:38.460Z,-2.20
2019-02-24T04:14:07.523Z,-2.10
2019-02-24T04:19:04.896Z,-2.00
2019-02-24T04:21:33.613Z,-2.00
2019-02-24T04:24:02.249Z,-2.00
2019-02-24T04:26:30.929Z,-2.10
2019-02-24T04:28:59.585Z,-2.20
2019-02-24T04:31:28.258Z,-2.30
2019-02-24T04:33:56.926Z,-2.30
2019-02-24T04:36:25.592Z,-2.50
2019-02-24T04:41:22.591Z,-2.40
2019-02-24T04:43:51.236Z,-2.20
2019-02-24T04:46:19.935Z,-2.20
2019-02-24T04:48:48.730Z,-2.20
2019-02-24T04:51:17.420Z,-2.20
2019-02-24T04:53:46.105Z,-2.10
2019-02-24T04:56:14.957Z,-2.10
2019-02-24T04:58:43.687Z,-2.20
2019-02-24T05:03:41.451Z,-2.60
2019-02-24T05:06:10.215Z,-2.30
2019-02-24T05:08:38.944Z,-2.40
2019-02-24T05:11:07.625Z,-2.60
2019-02-24T05:13:36.305Z,-2.70
2019-02-24T05:16:04.957Z,-2.70
2019-02-24T05:18:33.760Z,-2.80
2019-02-24T05:23:31.153Z,-2.70
2019-02-24T05:26:00.121Z,-2.60
2019-02-24T05:28:28.834Z,-2.60
2019-02-24T05:30:57.476Z,-2.60
2019-02-24T05:33:26.564Z,-2.60
2019-02-24T05:35:55.293Z,-2.50
2019-02-24T05:38:23.984Z,-2.60
2019-02-24T05:40:52.645Z,-2.70
2019-02-24T05:45:49.634Z,-2.70
2019-02-24T05:48:18.315Z,-2.70
2019-02-24T05:50:47.097Z,-2.80
2019-02-24T05:53:15.836Z,-2.90
2019-02-24T05:55:44.591Z,-3.00
2019-02-24T05:58:13.271Z,-2.90
2019-02-24T06:00:41.919Z,-3.90
2019-02-24T06:03:10.562Z,-3.10
2019-02-24T06:08:07.730Z,-3.20
2019-02-24T06:10:36.381Z,-3.10
2019-02-24T06:13:05.365Z,-3.00
2019-02-24T06:15:34.011Z,-3.00
2019-02-24T06:18:02.754Z,-3.00
2019-02-24T06:20:31.425Z,-2.90
2019-02-24T06:23:00.118Z,-2.90
2019-02-24T06:30:25.444Z,-2.80
2019-02-24T06:32:54.121Z,-2.80
2019-02-24T06:35:22.823Z,-2.80
2019-02-24T06:37:51.498Z,-2.70
2019-02-24T06:40:20.202Z,-2.60
2019-02-24T06:42:48.878Z,-2.60
2019-02-24T06:45:17.577Z,-0.60
2019-02-24T06:50:14.814Z,-2.80
2019-02-24T06:52:43.650Z,-2.80
2019-02-24T06:55:12.317Z,-2.80
2019-02-24T06:57:41.003Z,-2.60
2019-02-24T07:00:14.235Z,-2.60
2019-02-24T07:02:40.214Z,-2.50
2019-02-24T07:05:08.904Z,-2.30
2019-02-24T07:10:06.631Z,-2.30
2019-02-24T07:12:35.760Z,-2.20
2019-02-24T07:15:04.781Z,-2.10
2019-02-24T07:17:33.447Z,-2.00
2019-02-24T07:20:02.109Z,-1.80
2019-02-24T07:22:30.751Z,-1.80
2019-02-24T07:24:59.437Z,-1.70
2019-02-24T07:27:28.098Z,-1.60
2019-02-24T07:32:25.436Z,-1.40
2019-02-24T07:34:54.439Z,-1.30
2019-02-24T07:37:23.105Z,-0.90
2019-02-24T07:39:51.835Z,-0.60
2019-02-24T07:42:20.521Z,-0.30
2019-02-24T07:44:49.177Z,0.40
2019-02-24T07:47:17.881Z,0.40
2019-02-24T07:49:46.953Z,-0.10
2019-02-24T07:54:43.986Z,1.70
2019-02-24T07:57:12.729Z,1.60
2019-02-24T07:59:41.415Z,1.90
2019-02-24T08:02:10.133Z,2.20
2019-02-24T08:04:38.801Z,2.60
2019-02-24T08:07:07.478Z,2.90
2019-02-24T08:09:36.148Z,3.40
2019-02-24T08:12:04.818Z,3.90
2019-02-24T08:17:01.743Z,4.10
2019-02-24T08:19:30.489Z,4.30
2019-02-24T08:21:59.182Z,4.50
2019-02-24T08:24:29.166Z,4.90
2019-02-24T08:26:58.379Z,5.00
2019-02-24T08:29:28.674Z,5.10
2019-02-24T08:31:57.841Z,5.30
2019-02-24T08:34:26.477Z,5.40
2019-02-24T08:39:23.402Z,5.70
2019-02-24T08:41:52.145Z,6.10
2019-02-24T08:44:22.245Z,6.10
2019-02-24T08:46:51.048Z,6.30
2019-02-24T08:49:19.728Z,6.30
2019-02-24T08:51:48.385Z,6.20
2019-02-24T08:54:17.016Z,6.40
2019-02-24T08:56:45.701Z,6.60
2019-02-24T09:01:43.344Z,6.60
2019-02-24T09:04:12.001Z,6.70
2019-02-24T09:06:40.751Z,6.90
2019-02-24T09:09:09.432Z,7.00
2019-02-24T09:11:38.130Z,7.10
2019-02-24T09:14:06.804Z,7.20
2019-02-24T09:16:36.141Z,7.10
2019-02-24T09:21:33.367Z,7.10
2019-02-24T09:24:02.633Z,7.20
2019-02-24T09:26:31.367Z,7.30
2019-02-24T09:29:00.049Z,7.30
2019-02-24T09:31:28.728Z,7.60
2019-02-24T09:33:57.384Z,7.60
2019-02-24T09:36:26.100Z,7.50
2019-02-24T09:38:54.748Z,7.60
2019-02-24T09:43:51.894Z,7.60
2019-02-24T09:46:20.656Z,7.70
2019-02-24T09:48:49.389Z,7.70
2019-02-24T09:51:18.107Z,7.80
2019-02-24T09:53:46.789Z,7.60
2019-02-24T09:56:15.435Z,7.40
2019-02-24T09:58:44.436Z,7.30
2019-02-24T10:01:13.187Z,7.10
2019-02-24T10:06:10.225Z,7.10
2019-02-24T10:08:39.090Z,7.20
2019-02-24T10:11:07.799Z,7.40
2019-02-24T10:13:36.470Z,7.70
2019-02-24T10:16:05.141Z,8.10
2019-02-24T10:58:46.958Z,9.10
2019-02-24T11:01:15.645Z,9.90
2019-02-24T11:03:44.325Z,10.50
2019-02-24T11:06:12.994Z,10.80
2019-02-24T11:08:41.693Z,11.00
2019-02-24T11:11:10.377Z,11.20
2019-02-24T11:13:39.495Z,10.90
2019-02-24T11:18:36.591Z,10.80
2019-02-24T11:21:05.313Z,10.80
2019-02-24T11:23:33.991Z,10.60
2019-02-24T11:26:02.854Z,10.50
2019-02-24T11:28:31.612Z,10.50
2019-02-24T11:31:00.428Z,10.40
2019-02-24T11:33:29.767Z,10.40
2019-02-24T11:35:58.483Z,10.20
2019-02-24T11:40:55.626Z,10.00
2019-02-24T11:43:24.256Z,10.20
2019-02-24T11:45:53.357Z,10.30
2019-02-24T11:48:22.119Z,10.50
2019-02-24T11:50:50.889Z,10.50
2019-02-24T11:53:19.605Z,10.50
2019-02-24T11:55:48.345Z,10.60
2019-02-24T11:58:19.649Z,10.60
2019-02-24T12:03:16.864Z,10.60
2019-02-24T12:05:45.833Z,10.70
2019-02-24T12:08:15.028Z,10.70
2019-02-24T12:10:43.743Z,10.80
2019-02-24T12:13:12.443Z,10.90
2019-02-24T12:15:41.124Z,10.90
2019-02-24T12:18:09.787Z,10.90
2019-02-24T12:20:38.510Z,10.90
2019-02-24T12:25:35.544Z,11.10
2019-02-24T12:28:04.233Z,11.10
2019-02-24T12:30:32.927Z,11.00
2019-02-24T12:33:01.596Z,10.90
2019-02-24T12:35:30.258Z,11.00
2019-02-24T12:37:58.908Z,11.10
2019-02-24T12:40:27.662Z,11.10
2019-02-24T12:42:56.443Z,11.00
2019-02-24T12:47:53.470Z,11.10
2019-02-24T12:50:22.498Z,12.10
2019-02-24T12:52:51.140Z,11.20
2019-02-24T12:55:19.879Z,11.30
2019-02-24T12:57:48.549Z,11.30
2019-02-24T13:00:18.460Z,11.30
2019-02-24T13:02:47.518Z,11.40
2019-02-24T13:07:44.537Z,11.40
2019-02-24T13:10:14.178Z,11.40
2019-02-24T13:12:42.920Z,11.40
2019-02-24T13:15:11.710Z,11.40
2019-02-24T13:17:40.499Z,11.40
2019-02-24T13:20:10.100Z,11.30
2019-02-24T13:22:39.009Z,11.30
2019-02-24T13:25:09.812Z,11.10
2019-02-24T13:30:07.060Z,11.00
2019-02-24T13:32:35.813Z,11.00
2019-02-24T13:35:04.503Z,11.00
2019-02-24T13:37:34.176Z,11.10
2019-02-24T13:40:02.873Z,11.10
2019-02-24T13:42:31.525Z,11.20
2019-02-24T13:45:00.295Z,11.10
2019-02-24T13:47:28.985Z,11.10
2019-02-24T13:52:25.999Z,10.90
2019-02-24T13:54:54.699Z,10.80
2019-02-24T13:57:23.368Z,10.70
2019-02-24T13:59:52.049Z,10.70
2019-02-24T14:02:24.068Z,10.70
2019-02-24T14:04:51.173Z,10.60
2019-02-24T14:07:19.848Z,10.60
2019-02-24T14:09:48.539Z,10.60
2019-02-24T14:14:49.094Z,10.60
2019-02-24T14:17:15.932Z,10.60
2019-02-24T14:19:44.760Z,10.40
2019-02-24T14:22:13.514Z,10.30
2019-02-24T14:24:42.200Z,10.30
2019-02-24T14:27:10.874Z,10.30
2019-02-24T14:29:39.865Z,10.30
2019-02-24T14:32:08.553Z,10.10
2019-02-24T14:37:05.517Z,10.20
2019-02-24T14:39:34.202Z,10.30
2019-02-24T14:42:04.127Z,10.20
2019-02-24T14:44:33.265Z,10.20
2019-02-24T14:47:02.004Z,10.20
2019-02-24T14:49:30.728Z,10.20
2019-02-24T14:51:59.376Z,10.20
2019-02-24T14:54:28.114Z,10.30
2019-02-24T14:59:25.669Z,10.30
2019-02-24T15:01:54.387Z,10.40
2019-02-24T15:04:23.227Z,10.40
2019-02-24T15:06:52.187Z,10.30
2019-02-24T15:09:20.976Z,10.20
2019-02-24T15:11:49.672Z,10.20
2019-02-24T15:14:18.364Z,10.20
2019-02-24T15:19:15.431Z,10.10
2019-02-24T15:21:44.121Z,10.10
2019-02-24T15:24:13.067Z,10.10
2019-02-24T15:26:41.741Z,10.00
2019-02-24T15:29:10.387Z,10.00
2019-02-24T15:31:39.040Z,10.00
2019-02-24T15:34:07.727Z,9.90
2019-02-24T15:36:36.678Z,9.50
2019-02-24T15:41:33.796Z,9.70
2019-02-24T15:44:02.582Z,9.70
2019-02-24T15:46:31.300Z,9.70
2019-02-24T15:49:00.241Z,9.70
2019-02-24T15:51:29.913Z,9.80
2019-02-24T15:53:58.668Z,9.70
2019-02-24T15:56:27.363Z,9.70
2019-02-24T15:58:56.059Z,9.70
2019-02-24T16:03:53.104Z,9.70
2019-02-24T16:06:21.775Z,9.60
2019-02-24T16:08:50.523Z,9.60
2019-02-24T16:11:20.276Z,9.60
2019-02-24T16:13:48.968Z,9.50
2019-02-24T16:16:17.651Z,9.50
2019-02-24T16:18:46.331Z,9.40
2019-02-24T16:21:15.032Z,9.40
2019-02-24T16:26:12.334Z,9.40
2019-02-24T16:28:41.085Z,9.40
2019-02-24T16:31:09.752Z,9.40
2019-02-24T16:33:38.544Z,9.40
2019-02-24T16:36:08.253Z,9.40
2019-02-24T16:38:36.944Z,9.40
2019-02-24T16:41:05.754Z,9.30
2019-02-24T16:43:34.529Z,9.00
2019-02-24T16:48:31.818Z,9.20
2019-02-24T16:51:00.516Z,9.20
2019-02-24T16:53:29.283Z,9.10
2019-02-24T16:55:58.339Z,8.90
2019-02-24T16:58:27.237Z,8.80
2019-02-24T17:00:55.974Z,8.70
2019-02-24T17:03:24.721Z,8.40
2019-02-24T17:08:22.820Z,8.10
2019-02-24T17:10:51.525Z,8.00
2019-02-24T17:13:20.281Z,7.80
2019-02-24T17:15:49.049Z,7.60
2019-02-24T17:18:19.589Z,7.50
2019-02-24T17:20:48.222Z,7.30
2019-02-24T17:23:21.343Z,7.30
2019-02-24T17:25:50.065Z,7.10
2019-02-24T17:30:47.517Z,7.00
2019-02-24T17:33:16.340Z,6.90
2019-02-24T17:35:45.008Z,6.80
2019-02-24T17:38:14.833Z,6.70
2019-02-24T17:40:44.637Z,6.30
2019-02-24T17:43:15.457Z,5.90
2019-02-24T17:45:44.952Z,5.90
2019-02-24T17:48:13.878Z,5.80
2019-02-24T17:53:10.940Z,5.60
2019-02-24T17:55:39.602Z,5.40
2019-02-24T17:58:08.300Z,5.40
2019-02-24T18:00:42.957Z,5.30
2019-02-24T18:03:11.695Z,5.30
2019-02-24T18:05:40.431Z,5.20
2019-02-24T18:08:09.106Z,5.20
2019-02-24T18:10:38.808Z,5.10
2019-02-24T18:15:36.892Z,5.20
2019-02-24T18:18:05.587Z,5.20
2019-02-24T18:20:34.282Z,5.10
2019-02-24T18:23:02.949Z,5.20
2019-02-24T18:25:31.633Z,5.20
2019-02-24T18:28:00.312Z,5.10
2019-02-24T18:30:29.088Z,5.00
2019-02-24T18:32:57.800Z,4.90
2019-02-24T18:37:56.983Z,4.80
2019-02-24T18:40:25.712Z,5.40
2019-02-24T18:43:00.137Z,4.70
2019-02-24T18:45:25.894Z,4.50
2019-02-24T18:47:54.621Z,4.50
2019-02-24T18:50:23.297Z,4.60
2019-02-24T18:52:52.001Z,4.60
2019-02-24T18:55:20.665Z,4.40
2019-02-24T19:00:17.878Z,4.30
2019-02-24T19:02:46.634Z,4.20
2019-02-24T19:05:15.398Z,4.10
2019-02-24T19:07:44.142Z,4.10
2019-02-24T19:10:14.234Z,4.00
2019-02-24T19:12:42.937Z,4.00
2019-02-24T19:15:13.677Z,3.90
2019-02-24T19:17:42.445Z,3.60
2019-02-24T19:22:39.891Z,5.30
2019-02-24T19:25:09.449Z,4.10
2019-02-24T19:27:38.194Z,4.10
2019-02-24T19:30:08.166Z,4.10
2019-02-24T19:32:37.284Z,3.90
2019-02-24T19:35:06.585Z,3.90
2019-02-24T19:37:35.310Z,3.80
2019-02-24T19:40:06.156Z,3.60
2019-02-24T19:45:07.737Z,3.40
2019-02-24T19:47:36.409Z,3.40
2019-02-24T19:50:06.120Z,3.40
2019-02-24T19:52:40.600Z,3.40
2019-02-24T19:55:09.454Z,3.40
2019-02-24T19:57:38.198Z,3.20
2019-02-24T20:00:08.761Z,3.10
2019-02-24T20:02:38.452Z,3.00
2019-02-24T20:07:36.538Z,2.90
2019-02-24T20:10:06.258Z,2.90
2019-02-24T20:12:34.907Z,2.90
2019-02-24T20:15:03.741Z,2.70
2019-02-24T20:17:32.487Z,2.60
2019-02-24T20:20:01.257Z,2.60
2019-02-24T20:22:30.049Z,2.60
2019-02-24T20:24:58.804Z,2.50
2019-02-24T20:29:57.954Z,2.40
2019-02-24T20:32:26.768Z,2.40
2019-02-24T20:34:55.462Z,2.50
2019-02-24T20:37:25.153Z,2.50
2019-02-24T20:39:53.849Z,2.50
2019-02-24T20:42:23.563Z,2.60
2019-02-24T20:44:53.310Z,2.60
2019-02-24T20:47:22.047Z,2.60
2019-02-24T20:52:19.185Z,2.50
2019-02-24T20:57:17.156Z,2.50
2019-02-24T20:59:46.358Z,2.40
2019-02-24T21:02:15.109Z,2.50
2019-02-24T21:04:45.248Z,2.50
2019-02-24T21:07:21.312Z,2.50
2019-02-24T21:09:54.502Z,2.40
2019-02-24T21:14:54.938Z,2.30
2019-02-24T21:17:25.670Z,2.20
2019-02-24T21:19:55.357Z,2.20
2019-02-24T21:22:24.153Z,2.20
2019-02-24T21:24:53.038Z,2.20
2019-02-24T21:27:21.732Z,2.10
2019-02-24T21:29:50.792Z,2.10
2019-02-24T21:32:19.497Z,2.00
2019-02-24T21:37:16.637Z,2.00
2019-02-24T21:39:45.722Z,2.10
2019-02-24T21:42:14.617Z,2.10
2019-02-24T21:44:46.602Z,2.00
2019-02-24T21:47:16.321Z,2.00
2019-02-24T21:49:45.037Z,2.00
2019-02-24T21:52:14.713Z,1.90
2019-02-24T21:54:44.415Z,2.00
2019-02-24T21:59:43.912Z,2.00
2019-02-24T22:02:12.669Z,1.90
2019-02-24T22:04:41.839Z,1.90
2019-02-24T22:09:40.028Z,1.60
2019-02-24T22:12:14.903Z,1.50
2019-02-24T22:14:45.334Z,1.60
2019-02-24T22:27:29.079Z,1.50
2019-02-24T22:29:58.161Z,1.60
2019-02-24T22:32:30.212Z,1.60
2019-02-24T22:35:02.656Z,1.60
2019-02-24T22:37:40.218Z,1.70
2019-02-24T22:40:11.220Z,1.70
2019-02-24T22:42:42.778Z,1.70
2019-02-24T22:45:16.709Z,1.60
2019-02-24T22:50:20.555Z,1.60
2019-02-24T22:52:59.522Z,1.50
2019-02-24T22:55:29.858Z,1.50
2019-02-24T23:00:59.178Z,1.60
2019-02-24T23:05:57.799Z,1.60
2019-02-24T23:08:27.467Z,1.50
2019-02-24T23:10:56.496Z,1.40
2019-02-24T23:13:25.812Z,1.30
2019-02-24T23:18:23.250Z,1.30
2019-02-24T23:20:51.992Z,1.30
2019-02-24T23:23:20.754Z,1.30
2019-02-24T23:25:49.425Z,1.20
2019-02-24T23:28:18.117Z,1.30
2019-02-24T23:30:46.788Z,1.20
2019-02-24T23:33:15.551Z,1.20
2019-02-24T23:35:44.267Z,3.10
2019-02-24T23:40:41.350Z,1.20
2019-02-24T23:43:10.029Z,1.20
2019-02-24T23:48:07.483Z,1.00
2019-02-24T23:58:02.485Z,0.90
